createdAt,value
2023-04-02T00:00:16.472Z,9.719031
2023-04-02T00:01:23.860Z,9.718948
2023-04-02T00:02:16.460Z,9.719030
2023-04-02T00:03:16.523Z,9.719208
2023-04-02T00:04:17.485Z,9.719160
2023-04-02T00:05:16.524Z,9.719139
2023-04-02T00:06:16.421Z,9.719089
2023-04-02T00:07:16.390Z,9.719094
2023-04-02T00:08:16.393Z,9.719213
2023-04-02T00:09:16.357Z,9.719287
2023-04-02T00:10:16.334Z,9.719246
2023-04-02T00:11:16.371Z,9.719209
2023-04-02T00:12:16.343Z,9.719209
2023-04-02T00:13:16.349Z,9.719249
2023-04-02T00:14:16.325Z,9.719253
2023-04-02T00:15:16.320Z,9.719297
2023-04-02T00:16:16.351Z,9.719256
2023-04-02T00:17:16.307Z,9.719233
2023-04-02T00:18:16.329Z,9.719181
2023-04-02T00:19:16.323Z,9.719151
2023-04-02T00:20:16.284Z,9.719164
2023-04-02T00:21:16.291Z,9.719112
2023-04-02T00:22:16.261Z,9.719121
2023-04-02T00:23:16.242Z,9.719109
2023-04-02T00:24:16.284Z,9.719151
2023-04-02T00:25:16.206Z,9.719118
2023-04-02T00:26:16.244Z,9.719098
2023-04-02T00:27:16.187Z,9.719083
2023-04-02T00:28:16.351Z,9.719085
2023-04-02T00:29:16.184Z,9.719085
2023-04-02T00:30:16.176Z,9.719029
2023-04-02T00:31:16.130Z,9.719053
2023-04-02T00:32:16.168Z,9.719002
2023-04-02T00:33:16.131Z,9.718978
2023-04-02T00:34:16.091Z,9.719090
2023-04-02T00:35:16.130Z,9.719136
2023-04-02T00:36:16.117Z,9.719300
2023-04-02T00:37:16.165Z,9.719282
2023-04-02T00:38:16.123Z,9.719046
2023-04-02T00:39:16.040Z,9.719211
2023-04-02T00:40:16.068Z,9.719228
2023-04-02T00:41:16.086Z,9.719293
2023-04-02T00:42:16.053Z,9.719290
2023-04-02T00:43:16.024Z,9.719318
2023-04-02T00:44:16.110Z,9.719356
2023-04-02T00:45:16.034Z,9.719322
2023-04-02T00:46:16.026Z,9.719393
2023-04-02T00:47:16.016Z,9.719545
2023-04-02T00:48:16.061Z,9.719631
2023-04-02T00:49:16.011Z,9.719597
2023-04-02T00:50:15.958Z,9.719726
2023-04-02T00:51:15.930Z,9.719604
2023-04-02T00:52:15.999Z,9.719604
2023-04-02T00:53:15.918Z,9.719604
2023-04-02T00:54:16.033Z,9.719604
2023-04-02T00:55:15.979Z,9.719604
2023-04-02T00:56:15.886Z,9.719604
2023-04-02T00:57:15.921Z,9.719604
2023-04-02T00:58:15.873Z,9.719604
2023-04-02T00:59:15.836Z,9.719604
2023-04-02T01:00:15.892Z,9.719604
2023-04-02T01:01:15.931Z,9.719604
2023-04-02T01:02:15.865Z,9.719604
2023-04-02T01:03:15.955Z,9.719084
2023-04-02T01:04:15.904Z,9.719111
2023-04-02T01:05:15.823Z,9.719060
2023-04-02T01:06:15.823Z,9.719122
2023-04-02T01:07:15.794Z,9.719069
2023-04-02T01:08:15.823Z,9.719148
2023-04-02T01:09:15.790Z,9.719193
2023-04-02T01:10:15.750Z,9.719188
2023-04-02T01:11:15.746Z,9.719044
2023-04-02T01:12:15.769Z,9.719104
2023-04-02T01:13:15.743Z,9.719204
2023-04-02T01:14:15.724Z,9.719096
2023-04-02T01:15:15.757Z,9.719251
2023-04-02T01:16:15.752Z,9.719069
2023-04-02T01:17:15.703Z,9.719125
2023-04-02T01:18:15.679Z,9.719175
2023-04-02T01:19:15.678Z,9.719126
2023-04-02T01:20:15.739Z,9.719079
2023-04-02T01:21:15.645Z,9.719213
2023-04-02T01:22:15.654Z,9.719260
2023-04-02T01:23:15.639Z,9.719300
2023-04-02T01:24:15.674Z,9.719189
2023-04-02T01:25:15.635Z,9.719416
2023-04-02T01:26:15.599Z,9.719240
2023-04-02T01:27:15.613Z,9.719077
2023-04-02T01:28:15.620Z,9.719316
2023-04-02T01:29:15.574Z,9.719278
2023-04-02T01:30:15.588Z,9.719277
2023-04-02T01:31:15.570Z,9.718908
2023-04-02T01:32:15.630Z,9.719032
2023-04-02T01:33:15.529Z,9.719272
2023-04-02T01:34:15.521Z,9.718926
2023-04-02T01:35:15.550Z,9.719434
2023-04-02T01:36:15.535Z,9.719366
2023-04-02T01:37:15.512Z,9.719353
2023-04-02T01:38:15.511Z,9.719213
2023-04-02T01:39:15.516Z,9.719441
2023-04-02T01:40:15.592Z,9.719393
2023-04-02T01:41:15.441Z,9.719235
2023-04-02T01:42:15.468Z,9.718975
2023-04-02T01:43:15.477Z,9.719255
2023-04-02T01:44:15.440Z,9.719205
2023-04-02T01:45:15.439Z,9.719100
2023-04-02T01:46:15.410Z,9.719168
2023-04-02T01:47:15.376Z,9.719232
2023-04-02T01:48:15.388Z,9.719236
2023-04-02T01:49:15.382Z,9.719228
2023-04-02T01:50:15.393Z,9.719238
2023-04-02T01:51:15.371Z,9.719162
2023-04-02T01:52:15.322Z,9.719090
2023-04-02T01:53:15.427Z,9.719170
2023-04-02T01:54:15.346Z,9.719159
2023-04-02T01:55:15.299Z,9.719254
2023-04-02T01:56:15.302Z,9.719151
2023-04-02T01:57:15.366Z,9.719206
2023-04-02T01:58:15.328Z,9.719203
2023-04-02T01:59:15.386Z,9.719187
2023-04-02T02:00:15.294Z,9.719217
2023-04-02T02:01:15.317Z,9.719217
2023-04-02T02:02:15.293Z,9.719253
2023-04-02T02:03:15.244Z,9.719198
2023-04-02T02:04:15.237Z,9.719157
2023-04-02T02:05:15.192Z,9.719143
2023-04-02T02:06:15.178Z,9.719186
2023-04-02T02:07:15.249Z,9.719224
2023-04-02T02:08:15.191Z,9.719097
2023-04-02T02:09:15.173Z,9.719126
2023-04-02T02:10:15.160Z,9.719267
2023-04-02T02:11:15.129Z,9.719241
2023-04-02T02:12:15.159Z,9.719414
2023-04-02T02:13:15.285Z,9.719344
2023-04-02T02:14:15.148Z,9.719247
2023-04-02T02:15:15.192Z,9.719110
2023-04-02T02:16:15.131Z,9.719090
2023-04-02T02:21:34.678Z,9.719133
2023-04-02T02:22:34.670Z,9.719192
2023-04-02T02:23:34.694Z,9.719068
2023-04-02T02:24:34.665Z,9.719033
2023-04-02T02:25:34.752Z,9.719044
2023-04-02T02:26:34.627Z,9.719245
2023-04-02T02:27:34.626Z,9.719304
2023-04-02T02:28:34.633Z,9.719312
2023-04-02T02:29:34.609Z,9.719211
2023-04-02T02:30:34.603Z,9.719625
2023-04-02T02:31:34.608Z,9.719433
2023-04-02T02:32:34.605Z,9.719292
2023-04-02T02:33:34.576Z,9.719336
2023-04-02T02:34:34.549Z,9.719331
2023-04-02T02:35:35.013Z,9.719540
2023-04-02T02:36:34.553Z,9.719342
2023-04-02T02:37:34.525Z,9.719164
2023-04-02T02:38:34.491Z,9.719033
2023-04-02T02:39:34.499Z,9.719053
2023-04-02T02:40:34.518Z,9.719135
2023-04-02T02:41:34.515Z,9.719276
2023-04-02T02:42:34.481Z,9.719294
2023-04-02T02:43:34.486Z,9.719333
2023-04-02T02:44:34.467Z,9.719549
2023-04-02T02:45:34.602Z,9.719299
2023-04-02T02:46:34.438Z,9.719398
2023-04-02T02:47:34.491Z,9.719350
2023-04-02T02:48:35.581Z,9.719382
2023-04-02T02:49:34.383Z,9.719353
2023-04-02T02:50:35.416Z,9.719378
2023-04-02T02:51:34.408Z,9.719442
2023-04-02T02:52:34.358Z,9.719356
2023-04-02T02:53:34.396Z,9.719325
2023-04-02T02:54:34.414Z,9.719297
2023-04-02T02:55:34.690Z,9.719298
2023-04-02T02:56:34.333Z,9.719335
2023-04-02T02:57:34.388Z,9.719355
2023-04-02T02:58:34.330Z,9.719411
2023-04-02T02:59:34.332Z,9.719404
2023-04-02T03:00:34.302Z,9.719346
2023-04-02T03:01:34.333Z,9.719247
2023-04-02T03:02:34.328Z,9.719254
2023-04-02T03:03:34.594Z,9.719151
2023-04-02T03:04:34.226Z,9.719260
2023-04-02T03:05:34.534Z,9.719251
2023-04-02T03:06:34.229Z,9.719310
2023-04-02T03:07:34.235Z,9.719386
2023-04-02T03:08:34.262Z,9.719367
2023-04-02T03:09:34.194Z,9.719436
2023-04-02T03:10:34.188Z,9.719322
2023-04-02T03:11:34.198Z,9.719373
2023-04-02T03:12:34.181Z,9.719256
2023-04-02T03:13:34.158Z,9.719304
2023-04-02T03:14:34.146Z,9.719160
2023-04-02T03:15:34.418Z,9.719267
2023-04-02T03:16:34.145Z,9.719323
2023-04-02T03:17:34.189Z,9.719354
2023-04-02T03:18:34.113Z,9.719109
2023-04-02T03:19:34.114Z,9.719136
2023-04-02T03:20:34.089Z,9.719186
2023-04-02T03:21:34.072Z,9.719587
2023-04-02T03:22:34.091Z,9.719284
2023-04-02T03:23:34.085Z,9.719124
2023-04-02T03:24:34.093Z,9.719260
2023-04-02T03:25:34.330Z,9.719236
2023-04-02T03:26:34.066Z,9.719234
2023-04-02T03:27:34.148Z,9.719240
2023-04-02T03:28:34.042Z,9.719476
2023-04-02T03:29:34.010Z,9.719440
2023-04-02T03:30:34.030Z,9.719290
2023-04-02T03:31:34.072Z,9.719366
2023-04-02T03:32:34.013Z,9.719167
2023-04-02T03:33:33.982Z,9.719246
2023-04-02T03:34:33.998Z,9.719264
2023-04-02T03:35:34.387Z,9.719291
2023-04-02T03:36:33.944Z,9.719261
2023-04-02T03:37:33.925Z,9.719200
2023-04-02T03:38:34.938Z,9.719168
2023-04-02T03:39:33.914Z,9.719166
2023-04-02T03:40:33.886Z,9.719254
2023-04-02T03:41:33.914Z,9.719286
2023-04-02T03:42:33.896Z,9.719186
2023-04-02T03:43:33.903Z,9.719183
2023-04-02T03:44:33.874Z,9.719195
2023-04-02T03:45:34.086Z,9.719265
2023-04-02T03:46:33.874Z,9.719207
2023-04-02T03:47:33.870Z,9.719116
2023-04-02T03:48:33.812Z,9.719214
2023-04-02T03:49:33.814Z,9.719190
2023-04-02T03:50:33.834Z,9.719159
2023-04-02T03:51:33.814Z,9.719196
2023-04-02T03:52:33.846Z,9.719224
2023-04-02T03:53:33.763Z,9.719188
2023-04-02T03:54:33.789Z,9.719182
2023-04-02T03:55:34.061Z,9.719165
2023-04-02T03:56:33.752Z,9.719187
2023-04-02T03:57:33.774Z,9.719246
2023-04-02T03:58:33.760Z,9.719214
2023-04-02T03:59:33.712Z,9.719180
2023-04-02T04:00:33.710Z,9.719196
2023-04-02T04:01:33.799Z,9.719188
2023-04-02T04:02:33.701Z,9.719199
2023-04-02T04:03:33.768Z,9.719248
2023-04-02T04:04:33.745Z,9.719245
2023-04-02T04:05:33.802Z,9.719154
2023-04-02T04:06:33.630Z,9.719236
2023-04-02T04:07:33.613Z,9.719233
2023-04-02T04:08:33.638Z,9.719264
2023-04-02T04:09:33.657Z,9.719272
2023-04-02T04:10:33.616Z,9.719243
2023-04-02T04:11:33.632Z,9.719296
2023-04-02T04:12:33.586Z,9.719152
2023-04-02T04:13:33.585Z,9.719186
2023-04-02T04:14:33.579Z,9.719182
2023-04-02T04:15:33.994Z,9.719086
2023-04-02T04:16:33.572Z,9.719135
2023-04-02T04:17:33.576Z,9.719162
2023-04-02T04:18:33.550Z,9.719018
2023-04-02T04:19:33.525Z,9.719172
2023-04-02T04:20:33.485Z,9.719241
2023-04-02T04:21:33.483Z,9.719059
2023-04-02T04:22:33.542Z,9.719054
2023-04-02T04:23:33.481Z,9.719164
2023-04-02T04:24:33.476Z,9.719213
2023-04-02T04:25:33.858Z,9.719192
2023-04-02T04:26:33.462Z,9.719223
2023-04-02T04:27:33.504Z,9.719203
2023-04-02T04:28:33.440Z,9.719230
2023-04-02T04:29:33.431Z,9.719249
2023-04-02T04:30:33.421Z,9.719203
2023-04-02T04:31:33.440Z,9.719202
2023-04-02T04:32:33.424Z,9.719134
2023-04-02T04:33:33.409Z,9.719146
2023-04-02T04:34:33.367Z,9.719096
2023-04-02T04:35:33.516Z,9.719176
2023-04-02T04:36:33.352Z,9.719267
2023-04-02T04:37:33.357Z,9.719407
2023-04-02T04:38:33.310Z,9.719383
2023-04-02T04:39:33.328Z,9.719367
2023-04-02T04:40:33.333Z,9.719023
2023-04-02T04:41:33.301Z,9.719385
2023-04-02T04:42:33.305Z,9.719440
2023-04-02T04:43:33.301Z,9.719509
2023-04-02T04:44:33.307Z,9.719412
2023-04-02T04:45:33.491Z,9.719410
2023-04-02T04:46:33.298Z,9.719363
2023-04-02T04:47:33.334Z,9.719181
2023-04-02T04:48:35.168Z,9.719196
2023-04-02T04:49:33.262Z,9.719316
2023-04-02T04:50:33.189Z,9.719386
2023-04-02T04:51:33.195Z,9.719213
2023-04-02T04:52:33.196Z,9.719254
2023-04-02T04:53:33.228Z,9.719267
2023-04-02T04:54:33.186Z,9.719290
2023-04-02T04:55:33.528Z,9.719435
2023-04-02T04:56:33.154Z,9.719272
2023-04-02T04:57:33.121Z,9.719239
2023-04-02T04:58:33.183Z,9.719175
2023-04-02T04:59:33.148Z,9.719195
2023-04-02T05:00:33.159Z,9.719387
2023-04-02T05:01:33.124Z,9.719405
2023-04-02T05:02:33.144Z,9.719215
2023-04-02T05:03:33.094Z,9.719247
2023-04-02T05:04:33.091Z,9.719378
2023-04-02T05:05:33.461Z,9.719340
2023-04-02T05:06:33.051Z,9.719293
2023-04-02T05:07:33.068Z,9.719345
2023-04-02T05:08:33.053Z,9.719235
2023-04-02T05:09:33.041Z,9.719290
2023-04-02T05:10:33.006Z,9.719236
2023-04-02T05:11:33.001Z,9.719237
2023-04-02T05:12:32.991Z,9.719194
2023-04-02T05:13:32.979Z,9.719394
2023-04-02T05:14:32.954Z,9.719261
2023-04-02T05:15:32.948Z,9.719304
2023-04-02T05:16:33.010Z,9.719333
2023-04-02T05:17:33.039Z,9.719328
2023-04-02T05:18:32.924Z,9.719252
2023-04-02T05:19:32.929Z,9.719322
2023-04-02T05:20:32.934Z,9.719254
2023-04-02T05:21:32.922Z,9.719263
2023-04-02T05:22:32.901Z,9.719276
2023-04-02T05:23:32.889Z,9.719365
2023-04-02T05:24:32.870Z,9.719492
2023-04-02T05:25:33.046Z,9.719306
2023-04-02T05:26:32.896Z,9.719142
2023-04-02T05:27:32.844Z,9.719227
2023-04-02T05:28:32.822Z,9.719241
2023-04-02T05:29:32.817Z,9.719289
2023-04-02T05:30:32.813Z,9.719214
2023-04-02T05:31:32.789Z,9.719214
2023-04-02T05:32:32.824Z,9.719184
2023-04-02T05:33:32.781Z,9.719144
2023-04-02T05:34:32.796Z,9.719195
2023-04-02T05:35:32.791Z,9.719145
2023-04-02T05:36:32.746Z,9.719230
2023-04-02T05:37:32.758Z,9.719206
2023-04-02T05:38:32.726Z,9.719233
2023-04-02T05:39:32.736Z,9.719255
2023-04-02T05:40:32.738Z,9.719244
2023-04-02T05:41:32.717Z,9.719241
2023-04-02T05:42:32.694Z,9.719142
2023-04-02T05:43:32.728Z,9.719121
2023-04-02T05:44:32.676Z,9.719297
2023-04-02T05:45:32.799Z,9.719345
2023-04-02T05:46:32.741Z,9.719242
2023-04-02T05:47:32.709Z,9.719195
2023-04-02T05:48:32.670Z,9.719157
2023-04-02T05:49:32.641Z,9.719197
2023-04-02T05:50:32.594Z,9.719114
2023-04-02T05:51:32.617Z,9.718883
2023-04-02T05:52:32.597Z,9.719221
2023-04-02T05:53:32.572Z,9.719166
2023-04-02T05:54:32.624Z,9.719229
2023-04-02T05:55:32.893Z,9.719151
2023-04-02T05:56:32.573Z,9.719354
2023-04-02T05:57:42.706Z,9.719309
2023-04-02T05:58:36.293Z,9.719166
2023-04-02T05:59:33.538Z,9.719069
2023-04-02T06:00:32.556Z,9.718850
2023-04-02T06:01:32.522Z,9.718771
2023-04-02T06:02:32.569Z,9.719275
2023-04-02T06:03:32.630Z,9.719444
2023-04-02T06:04:32.475Z,9.719341
2023-04-02T06:05:32.509Z,9.719296
2023-04-02T06:06:32.494Z,9.719272
2023-04-02T06:07:32.451Z,9.719322
2023-04-02T06:08:32.410Z,9.719208
2023-04-02T06:09:32.418Z,9.719167
2023-04-02T06:10:32.418Z,9.719234
2023-04-02T06:11:32.471Z,9.719037
2023-04-02T06:12:32.386Z,9.719329
2023-04-02T06:13:32.365Z,9.719207
2023-04-02T06:14:32.377Z,9.718839
2023-04-02T06:15:32.366Z,9.719477
2023-04-02T06:16:32.391Z,9.718929
2023-04-02T06:17:32.440Z,9.718629
2023-04-02T06:18:32.341Z,9.719409
2023-04-02T06:19:32.330Z,9.719000
2023-04-02T06:20:32.333Z,9.719066
2023-04-02T06:21:32.365Z,9.718992
2023-04-02T06:22:32.297Z,9.718780
2023-04-02T06:23:32.334Z,9.718972
2023-04-02T06:24:32.323Z,9.718971
2023-04-02T06:25:32.290Z,9.718757
2023-04-02T06:26:32.270Z,9.718711
2023-04-02T06:27:33.279Z,9.719161
2023-04-02T06:28:32.306Z,9.718851
2023-04-02T06:29:32.259Z,9.719097
2023-04-02T06:30:32.218Z,9.719110
2023-04-02T06:31:32.197Z,9.719126
2023-04-02T06:32:32.286Z,9.719115
2023-04-02T06:33:32.214Z,9.719115
2023-04-02T06:34:32.198Z,9.719045
2023-04-02T06:35:32.222Z,9.719068
2023-04-02T06:36:32.233Z,9.719155
2023-04-02T06:37:32.190Z,9.719177
2023-04-02T06:38:32.144Z,9.719166
2023-04-02T06:39:32.144Z,9.719210
2023-04-02T06:40:32.149Z,9.719215
2023-04-02T06:41:32.116Z,9.719158
2023-04-02T06:42:32.147Z,9.719196
2023-04-02T06:43:32.097Z,9.719227
2023-04-02T06:44:32.106Z,9.719147
2023-04-02T06:45:32.130Z,9.719127
2023-04-02T06:46:32.277Z,9.719140
2023-04-02T06:47:33.080Z,9.719194
2023-04-02T06:48:32.033Z,9.719173
2023-04-02T06:49:32.054Z,9.719212
2023-04-02T06:50:32.048Z,9.719289
2023-04-02T06:51:32.025Z,9.719247
2023-04-02T06:52:33.405Z,9.719122
2023-04-02T06:53:32.047Z,9.719031
2023-04-02T06:54:31.988Z,9.719123
2023-04-02T06:55:32.006Z,9.719093
2023-04-02T06:56:32.008Z,9.719189
2023-04-02T06:57:32.037Z,9.719120
2023-04-02T06:58:31.953Z,9.719118
2023-04-02T06:59:31.959Z,9.718949
2023-04-02T07:00:31.925Z,9.718957
2023-04-02T07:01:31.980Z,9.719105
2023-04-02T07:02:31.965Z,9.718948
2023-04-02T07:03:31.931Z,9.719138
2023-04-02T07:04:31.981Z,9.719216
2023-04-02T07:05:31.906Z,9.718453
2023-04-02T07:06:31.894Z,9.718724
2023-04-02T07:07:31.860Z,9.718397
2023-04-02T07:08:31.861Z,9.718561
2023-04-02T07:09:31.817Z,9.719290
2023-04-02T07:10:31.875Z,9.719408
2023-04-02T07:11:31.836Z,9.719101
2023-04-02T07:12:31.845Z,9.719108
2023-04-02T07:13:31.781Z,9.719108
2023-04-02T07:14:31.800Z,9.718596
2023-04-02T07:15:31.764Z,9.718715
2023-04-02T07:16:31.789Z,9.718758
2023-04-02T07:17:31.836Z,9.719022
2023-04-02T07:18:31.772Z,9.718601
2023-04-02T07:19:31.736Z,9.718865
2023-04-02T07:20:31.761Z,9.719006
2023-04-02T07:21:31.740Z,9.718930
2023-04-02T07:22:31.770Z,9.719080
2023-04-02T07:23:31.689Z,9.719397
2023-04-02T07:24:31.684Z,9.719145
2023-04-02T07:25:31.662Z,9.718945
2023-04-02T07:26:31.668Z,9.719076
2023-04-02T07:27:31.663Z,9.718558
2023-04-02T07:28:31.629Z,9.718243
2023-04-02T07:29:31.667Z,9.718719
2023-04-02T07:30:31.673Z,9.719108
2023-04-02T07:31:31.725Z,9.719250
2023-04-02T07:32:31.641Z,9.718774
2023-04-02T07:33:31.677Z,9.719755
2023-04-02T07:34:31.603Z,9.719550
2023-04-02T07:35:32.738Z,9.719547
2023-04-02T07:36:31.600Z,9.719376
2023-04-02T07:37:31.585Z,9.719502
2023-04-02T07:38:31.538Z,9.719230
2023-04-02T07:39:31.548Z,9.719292
2023-04-02T07:40:31.531Z,9.719209
2023-04-02T07:41:31.565Z,9.719264
2023-04-02T07:42:31.597Z,9.719266
2023-04-02T07:43:31.542Z,9.719322
2023-04-02T07:44:31.513Z,9.719057
2023-04-02T07:45:31.465Z,9.719073
2023-04-02T07:46:31.501Z,9.719236
2023-04-02T07:47:31.563Z,9.719328
2023-04-02T07:48:31.456Z,9.719259
2023-04-02T07:49:31.443Z,9.719246
2023-04-02T07:50:31.466Z,9.719372
2023-04-02T07:51:31.442Z,9.719364
2023-04-02T07:52:31.426Z,9.719314
2023-04-02T07:53:31.471Z,9.719291
2023-04-02T07:54:31.407Z,9.719386
2023-04-02T07:55:31.426Z,9.719466
2023-04-02T07:56:31.388Z,9.719492
2023-04-02T07:57:31.427Z,9.719578
2023-04-02T07:58:31.355Z,9.719437
2023-04-02T07:59:31.351Z,9.719321
2023-04-02T08:00:31.357Z,9.719275
2023-04-02T08:01:31.391Z,9.719340
2023-04-02T08:02:31.402Z,9.719394
2023-04-02T08:03:31.466Z,9.719378
2023-04-02T08:04:31.290Z,9.719452
2023-04-02T08:05:31.278Z,9.719209
2023-04-02T08:06:31.280Z,9.719007
2023-04-02T08:07:31.280Z,9.719174
2023-04-02T08:08:31.251Z,9.719130
2023-04-02T08:09:31.246Z,9.719253
2023-04-02T08:10:31.225Z,9.719092
2023-04-02T08:11:31.967Z,9.719265
2023-04-02T08:12:31.256Z,9.719346
2023-04-02T08:13:31.232Z,9.719610
2023-04-02T08:14:31.208Z,9.719371
2023-04-02T08:15:31.175Z,9.719285
2023-04-02T08:16:31.228Z,9.719219
2023-04-02T08:18:03.193Z,9.719290
2023-04-02T08:18:31.161Z,9.719142
2023-04-02T08:19:31.901Z,9.719266
2023-04-02T08:20:31.179Z,9.719483
2023-04-02T08:21:31.148Z,9.719518
2023-04-02T08:22:31.111Z,9.719306
2023-04-02T08:23:31.116Z,9.719165
2023-04-02T08:24:31.100Z,9.719453
2023-04-02T08:25:31.089Z,9.719522
2023-04-02T08:26:31.061Z,9.719379
2023-04-02T08:27:31.119Z,9.719403
2023-04-02T08:28:31.047Z,9.719324
2023-04-02T08:29:31.119Z,9.719278
2023-04-02T08:30:31.057Z,9.719273
2023-04-02T08:31:31.073Z,9.719233
2023-04-02T08:32:31.073Z,9.719097
2023-04-02T08:33:31.043Z,9.719311
2023-04-02T08:34:30.995Z,9.719201
2023-04-02T08:35:31.027Z,9.719134
2023-04-02T08:36:30.970Z,9.719265
2023-04-02T08:37:30.943Z,9.719303
2023-04-02T08:38:30.985Z,9.719374
2023-04-02T08:39:30.953Z,9.719177
2023-04-02T08:40:30.927Z,9.719377
2023-04-02T08:41:30.934Z,9.719337
2023-04-02T08:42:30.932Z,9.719276
2023-04-02T08:43:30.969Z,9.719141
2023-04-02T08:44:30.909Z,9.719317
2023-04-02T08:45:30.906Z,9.719220
2023-04-02T08:46:30.980Z,9.719270
2023-04-02T08:47:30.925Z,9.719466
2023-04-02T08:48:30.881Z,9.719629
2023-04-02T08:49:30.900Z,9.719497
2023-04-02T08:50:30.890Z,9.719293
2023-04-02T08:51:30.860Z,9.719497
2023-04-02T08:52:30.799Z,9.719417
2023-04-02T08:53:30.846Z,9.719275
2023-04-02T08:54:30.800Z,9.719718
2023-04-02T08:55:30.804Z,9.719980
2023-04-02T08:56:30.806Z,9.719423
2023-04-02T08:57:30.864Z,9.719367
2023-04-02T08:58:30.783Z,9.719206
2023-04-02T08:59:30.744Z,9.719378
2023-04-02T09:00:30.719Z,9.719520
2023-04-02T09:01:30.792Z,9.719413
2023-04-02T09:02:30.737Z,9.719366
2023-04-02T09:03:30.739Z,9.719318
2023-04-02T09:04:30.781Z,9.719241
2023-04-02T09:05:30.764Z,9.719061
2023-04-02T09:06:31.774Z,9.719144
2023-04-02T09:07:30.776Z,9.719221
2023-04-02T09:08:30.743Z,9.719204
2023-04-02T09:09:30.679Z,9.719143
2023-04-02T09:10:30.670Z,9.719210
2023-04-02T09:11:30.656Z,9.719273
2023-04-02T09:12:30.646Z,9.719316
2023-04-02T09:13:30.606Z,9.719299
2023-04-02T09:14:30.593Z,9.719254
2023-04-02T09:15:30.632Z,9.719253
2023-04-02T09:16:30.604Z,9.719185
2023-04-02T09:17:42.630Z,9.719276
2023-04-02T09:18:32.585Z,9.719279
2023-04-02T09:19:30.563Z,9.719584
2023-04-02T09:20:30.601Z,9.719465
2023-04-02T09:21:30.557Z,9.719447
2023-04-02T09:22:30.551Z,9.719243
2023-04-02T09:23:30.547Z,9.719411
2023-04-02T09:24:30.533Z,9.719376
2023-04-02T09:25:30.516Z,9.719272
2023-04-02T09:26:30.496Z,9.719398
2023-04-02T09:27:30.499Z,9.719248
2023-04-02T09:28:30.508Z,9.719339
2023-04-02T09:29:30.436Z,9.718862
2023-04-02T09:30:30.500Z,9.719183
2023-04-02T09:31:30.506Z,9.719348
2023-04-02T09:32:30.456Z,9.719275
2023-04-02T09:33:30.430Z,9.719297
2023-04-02T09:34:30.427Z,9.719468
2023-04-02T09:35:30.441Z,9.719394
2023-04-02T09:36:30.422Z,9.719240
2023-04-02T09:37:30.383Z,9.719044
2023-04-02T09:38:30.361Z,9.719141
2023-04-02T09:39:30.373Z,9.719316
2023-04-02T09:40:30.386Z,9.719479
2023-04-02T09:41:30.333Z,9.719352
2023-04-02T09:42:30.320Z,9.719335
2023-04-02T09:43:30.373Z,9.719166
2023-04-02T09:44:30.369Z,9.719100
2023-04-02T09:45:30.305Z,9.719253
2023-04-02T09:46:30.339Z,9.718982
2023-04-02T09:47:30.332Z,9.719337
2023-04-02T09:48:30.464Z,9.719387
2023-04-02T09:49:30.265Z,9.719546
2023-04-02T09:50:30.256Z,9.719440
2023-04-02T09:51:30.245Z,9.719261
2023-04-02T09:52:30.254Z,9.719320
2023-04-02T09:53:30.244Z,9.719338
2023-04-02T09:54:30.233Z,9.719466
2023-04-02T09:55:30.211Z,9.719411
2023-04-02T09:56:30.199Z,9.718921
2023-04-02T09:57:30.293Z,9.719225
2023-04-02T09:58:30.167Z,9.719341
2023-04-02T09:59:30.172Z,9.719355
2023-04-02T10:00:32.486Z,9.719408
2023-04-02T10:01:31.237Z,9.719368
2023-04-02T10:02:30.197Z,9.719373
2023-04-02T10:03:30.148Z,9.719316
2023-04-02T10:04:30.137Z,9.719404
2023-04-02T10:06:32.125Z,9.719307
2023-04-02T10:07:30.084Z,9.719316
2023-04-02T10:08:30.074Z,9.719337
2023-04-02T10:09:30.052Z,9.719211
2023-04-02T10:10:30.096Z,9.719219
2023-04-02T10:11:36.493Z,9.719090
2023-04-02T10:12:32.038Z,9.719165
2023-04-02T10:13:30.051Z,9.719149
2023-04-02T10:14:29.995Z,9.719178
2023-04-02T10:15:30.020Z,9.719197
2023-04-02T10:16:30.078Z,9.719135
2023-04-02T10:17:30.014Z,9.719125
2023-04-02T10:18:29.973Z,9.719151
2023-04-02T10:19:29.972Z,9.719178
2023-04-02T10:20:32.121Z,9.718995
2023-04-02T10:21:29.954Z,9.718881
2023-04-02T10:22:29.970Z,9.719138
2023-04-02T10:23:29.972Z,9.719145
2023-04-02T10:24:29.973Z,9.719144
2023-04-02T10:25:29.988Z,9.719228
2023-04-02T10:26:29.901Z,9.719144
2023-04-02T10:27:29.933Z,9.719269
2023-04-02T10:28:29.896Z,9.719270
2023-04-02T10:29:29.888Z,9.719178
2023-04-02T10:30:29.925Z,9.719187
2023-04-02T10:31:29.862Z,9.719197
2023-04-02T10:32:29.886Z,9.719206
2023-04-02T10:33:29.913Z,9.719193
2023-04-02T10:34:29.822Z,9.719154
2023-04-02T10:35:29.851Z,9.719134
2023-04-02T10:36:29.818Z,9.719195
2023-04-02T10:37:29.821Z,9.719108
2023-04-02T10:38:29.833Z,9.719040
2023-04-02T10:39:29.819Z,9.719034
2023-04-02T10:40:29.761Z,9.719178
2023-04-02T10:41:29.754Z,9.719172
2023-04-02T10:42:29.752Z,9.719328
2023-04-02T10:43:29.735Z,9.719188
2023-04-02T10:44:29.721Z,9.719046
2023-04-02T10:45:29.701Z,9.719082
2023-04-02T10:46:29.807Z,9.719088
2023-04-02T10:47:29.739Z,9.719233
2023-04-02T10:48:29.737Z,9.719244
2023-04-02T10:49:29.698Z,9.719251
2023-04-02T10:50:29.697Z,9.719307
2023-04-02T10:51:29.640Z,9.719248
2023-04-02T10:52:29.690Z,9.719334
2023-04-02T10:53:29.660Z,9.719249
2023-04-02T10:54:29.638Z,9.719423
2023-04-02T10:55:29.631Z,9.719271
2023-04-02T10:56:35.107Z,9.719186
2023-04-02T10:57:30.650Z,9.719164
2023-04-02T10:58:29.599Z,9.719294
2023-04-02T10:59:29.606Z,9.719214
2023-04-02T11:00:29.596Z,9.719142
2023-04-02T11:01:29.832Z,9.719103
2023-04-02T11:02:29.614Z,9.719305
2023-04-02T11:03:29.663Z,9.719098
2023-04-02T11:04:29.548Z,9.719000
2023-04-02T11:05:29.524Z,9.719192
2023-04-02T11:06:29.509Z,9.719296
2023-04-02T11:07:29.478Z,9.719251
2023-04-02T11:08:29.472Z,9.719145
2023-04-02T11:09:29.515Z,9.719545
2023-04-02T11:10:29.481Z,9.719337
2023-04-02T11:11:29.457Z,9.719316
2023-04-02T11:12:29.463Z,9.719275
2023-04-02T11:13:29.508Z,9.719211
2023-04-02T11:14:29.468Z,9.719350
2023-04-02T11:15:29.537Z,9.719224
2023-04-02T11:16:29.553Z,9.719146
2023-04-02T11:17:29.396Z,9.719314
2023-04-02T11:18:29.413Z,9.719164
2023-04-02T11:19:29.387Z,9.719236
2023-04-02T11:20:29.373Z,9.719298
2023-04-02T11:21:29.391Z,9.719296
2023-04-02T11:22:29.336Z,9.719267
2023-04-02T11:23:29.344Z,9.719222
2023-04-02T11:24:29.314Z,9.719140
2023-04-02T11:25:29.302Z,9.719049
2023-04-02T11:26:29.324Z,9.719139
2023-04-02T11:27:29.299Z,9.719001
2023-04-02T11:28:29.301Z,9.719031
2023-04-02T11:29:29.291Z,9.719072
2023-04-02T11:30:29.293Z,9.719036
2023-04-02T11:31:29.330Z,9.719203
2023-04-02T11:32:29.306Z,9.719138
2023-04-02T11:33:36.651Z,9.719116
2023-04-02T11:34:30.267Z,9.719122
2023-04-02T11:35:29.250Z,9.719120
2023-04-02T11:36:29.229Z,9.719007
2023-04-02T11:37:29.239Z,9.718955
2023-04-02T11:38:29.179Z,9.719053
2023-04-02T11:39:29.218Z,9.719120
2023-04-02T11:40:29.187Z,9.719129
2023-04-02T11:41:29.185Z,9.719151
2023-04-02T11:42:29.176Z,9.719094
2023-04-02T11:43:29.190Z,9.719108
2023-04-02T11:44:29.121Z,9.719021
2023-04-02T11:45:29.135Z,9.719008
2023-04-02T11:46:29.191Z,9.719046
2023-04-02T11:47:29.167Z,9.719066
2023-04-02T11:48:29.143Z,9.719084
2023-04-02T11:49:29.075Z,9.719154